This is the latest recevied weather packets stored in our database for station/object EA1BQO-1. If no packets are shown the sender has not sent any weather packets the latest 1 day(s).
| Time | Temp. | Humidity | Pressure | Rain* | Wind** | Luminosity | Snow |
|---|---|---|---|---|---|---|---|
| 1778016405 | 8.89° C | 86% | 1011.9 hPa | 0 mm | 0 m/s | - | - |
| 1778015805 | 8.89° C | 85% | 1012 hPa | 0 mm | 0 m/s | - | - |
| 1778015205 | 8.89° C | 84% | 1012 hPa | 0 mm | 0 m/s | - | - |
| 1778014605 | 9.44° C | 84% | 1011.8 hPa | 0 mm | 0.45 m/s, 240° | - | - |
| 1778014005 | 9.44° C | 83% | 1011.7 hPa | 0 mm | 0 m/s | - | - |
| 1778013405 | 9.44° C | 83% | 1011.5 hPa | 0 mm | 0.45 m/s, 229° | - | - |
| 1778012805 | 9.44° C | 83% | 1011.5 hPa | 0 mm | 0.45 m/s, 236° | - | - |
| 1778012205 | 9.44° C | 84% | 1011.3 hPa | 0 mm | 0.89 m/s, 245° | - | - |
| 1778011605 | 9.44° C | 84% | 1011.2 hPa | 0 mm | 0.89 m/s, 238° | - | - |
| 1778011005 | 9.44° C | 83% | 1011.1 hPa | 0 mm | 0.89 m/s, 269° | - | - |
| 1778010405 | 10° C | 80% | 1010.9 hPa | 0 mm | 0.89 m/s, 259° | - | - |
| 1778009805 | 10° C | 79% | 1010.9 hPa | 0 mm | 0.45 m/s, 235° | - | - |
| 1778009205 | 10° C | 79% | 1010.8 hPa | 0 mm | 0.45 m/s, 226° | - | - |
| 1778008605 | 10° C | 79% | 1010.8 hPa | 0 mm | 1.34 m/s, 237° | - | - |
| 1778008005 | 10° C | 78% | 1010.9 hPa | 0 mm | 0.45 m/s, 239° | - | - |
| 1778007405 | 10.56° C | 75% | 1010.8 hPa | 0 mm | 0.45 m/s, 250° | - | - |
| 1778006805 | 11.11° C | 73% | 1010.8 hPa | 0 mm | 0.89 m/s, 238° | - | - |
| 1778006205 | 11.67° C | 70% | 1010.7 hPa | 0 mm | 0.45 m/s, 237° | - | - |
| 1778005605 | 12.22° C | 70% | 1010.7 hPa | 0 mm | 0.89 m/s, 203° | - | - |
| 1778005005 | 12.22° C | 70% | 1010.6 hPa | 0 mm | 0.45 m/s, 210° | - | - |
| 1778004405 | 11.67° C | 69% | 1010.7 hPa | 0 mm | 1.34 m/s, 199° | - | - |
| 1778003805 | 11.67° C | 71% | 1010.6 hPa | 0 mm | 0.45 m/s, 220° | - | - |
| 1778003205 | 11.11° C | 72% | 1010.7 hPa | 0 mm | 1.34 m/s, 220° | - | - |
| 1778002605 | 10.56° C | 75% | 1010.6 hPa | 0 mm | 0.89 m/s, 222° | - | - |
| 1778002005 | 11.11° C | 75% | 1010.7 hPa | 0.25 mm | 0.45 m/s, 246° | - | - |
* Rain latest hour (hover to see other rain measurements)
** Current wind speed in m/s (hover to see current wind gust speed)